createdAt,value
2019-04-20T00:01:25.470Z,8.83
2019-04-20T00:03:50.222Z,9.17
2019-04-20T00:06:21.487Z,9.70
2019-04-20T00:09:01.829Z,9.20
2019-04-20T00:11:29.524Z,8.90
2019-04-20T00:14:04.175Z,9.40
2019-04-20T00:16:33.800Z,8.77
2019-04-20T00:19:05.448Z,9.33
2019-04-20T00:21:46.966Z,8.73
2019-04-20T00:24:27.360Z,8.70
2019-04-20T00:27:15.853Z,9.70
2019-04-20T00:29:49.572Z,10.13
2019-04-20T00:32:14.322Z,10.23
2019-04-20T00:34:40.718Z,8.67
2019-04-20T00:37:10.910Z,9.80
2019-04-20T00:39:41.093Z,9.17
2019-04-20T00:42:15.875Z,8.53
2019-04-20T00:44:45.851Z,8.30
2019-04-20T00:47:32.303Z,8.53
2019-04-20T00:49:58.047Z,8.50
2019-04-20T00:52:50.886Z,10.20
2019-04-20T00:54:51.497Z,10.10
2019-04-20T00:57:34.692Z,9.70
2019-04-20T01:00:16.434Z,8.77
2019-04-20T01:02:40.296Z,7.53
2019-04-20T01:05:18.067Z,8.37
2019-04-20T01:08:01.615Z,10.63
2019-04-20T01:10:43.692Z,8.70
2019-04-20T01:13:15.085Z,8.03
2019-04-20T01:15:52.757Z,9.03
2019-04-20T01:18:15.251Z,8.73
2019-04-20T01:20:45.739Z,10.37
2019-04-20T01:23:20.729Z,9.00
2019-04-20T01:25:56.846Z,10.20
2019-04-20T01:28:39.974Z,9.83
2019-04-20T01:31:08.312Z,8.83
2019-04-20T01:33:40.052Z,8.10
2019-04-20T01:36:19.481Z,8.97
2019-04-20T01:38:47.372Z,11.60
2019-04-20T01:41:07.486Z,10.50
2019-04-20T01:43:41.616Z,8.37
2019-04-20T01:46:20.703Z,8.50
2019-04-20T01:48:48.173Z,7.70
2019-04-20T01:51:26.354Z,7.50
2019-04-20T01:54:14.790Z,11.80
2019-04-20T01:56:43.785Z,9.13
2019-04-20T01:59:38.519Z,7.80
2019-04-20T02:02:31.099Z,9.53
2019-04-20T02:05:14.149Z,8.43
2019-04-20T02:07:44.562Z,7.40
2019-04-20T02:10:15.124Z,10.13
2019-04-20T02:12:50.302Z,8.47
2019-04-20T02:15:27.826Z,8.20
2019-04-20T02:18:03.145Z,8.33
2019-04-20T02:20:38.997Z,10.03
2019-04-20T02:23:09.367Z,7.00
2019-04-20T02:25:31.126Z,7.60
2019-04-20T02:28:24.267Z,8.80
2019-04-20T02:31:15.738Z,8.50
2019-04-20T02:33:43.223Z,8.50
2019-04-20T02:36:27.504Z,7.70
2019-04-20T02:39:27.264Z,8.13
2019-04-20T02:44:18.033Z,7.90
2019-04-20T02:46:55.386Z,8.33
2019-04-20T02:49:19.882Z,7.37
2019-04-20T02:51:47.319Z,8.63
2019-04-20T02:54:27.550Z,8.40
2019-04-20T02:59:47.382Z,10.37
2019-04-20T03:01:45.670Z,7.93
2019-04-20T03:04:04.658Z,6.93
2019-04-20T03:06:48.633Z,7.70
2019-04-20T03:09:34.958Z,8.87
2019-04-20T03:12:04.942Z,6.77
2019-04-20T03:14:26.646Z,7.47
2019-04-20T03:17:01.407Z,8.17
2019-04-20T03:19:28.421Z,7.97
2019-04-20T03:22:09.494Z,6.73
2019-04-20T03:24:47.099Z,7.37
2019-04-20T03:27:10.819Z,7.37
2019-04-20T03:29:52.293Z,6.73
2019-04-20T03:35:23.929Z,7.40
2019-04-20T03:37:52.916Z,7.70
2019-04-20T03:40:17.617Z,6.67
2019-04-20T03:42:37.001Z,6.90
2019-04-20T03:45:12.850Z,7.30
2019-04-20T03:47:52.840Z,7.60
2019-04-20T03:50:37.874Z,7.63
2019-04-20T03:53:23.034Z,7.00
2019-04-20T03:56:22.830Z,6.80
2019-04-20T03:58:53.225Z,7.80
2019-04-20T04:02:09.286Z,7.10
2019-04-20T04:04:38.975Z,7.10
2019-04-20T04:06:56.627Z,7.30
2019-04-20T04:09:35.449Z,7.50
2019-04-20T04:12:27.372Z,7.27
2019-04-20T04:14:49.440Z,6.50
2019-04-20T04:17:26.934Z,7.10
2019-04-20T04:19:57.278Z,6.07
2019-04-20T04:22:41.988Z,5.90
2019-04-20T04:25:10.111Z,6.50
2019-04-20T04:27:40.483Z,6.70
2019-04-20T04:30:16.995Z,6.80
2019-04-20T04:33:29.812Z,7.67
2019-04-20T04:35:23.257Z,7.03
2019-04-20T04:38:02.441Z,6.70
2019-04-20T04:40:44.297Z,6.60
2019-04-20T04:43:09.214Z,6.77
2019-04-20T04:45:19.374Z,6.73
2019-04-20T04:47:49.498Z,6.20
2019-04-20T04:50:24.829Z,9.63
2019-04-20T04:53:04.506Z,6.30
2019-04-20T04:55:37.059Z,7.00
2019-04-20T04:58:00.212Z,8.07
2019-04-20T05:00:33.154Z,11.13
2019-04-20T05:03:27.644Z,7.00
2019-04-20T05:06:06.692Z,7.30
2019-04-20T05:08:30.721Z,6.87
2019-04-20T05:10:54.344Z,6.90
2019-04-20T05:13:26.732Z,7.47
2019-04-20T05:16:15.836Z,6.47
2019-04-20T05:19:00.542Z,7.23
2019-04-20T05:21:41.192Z,7.77
2019-04-20T05:24:25.587Z,6.63
2019-04-20T05:27:08.789Z,6.77
2019-04-20T05:29:28.263Z,7.00
2019-04-20T05:32:03.478Z,6.47
2019-04-20T05:34:55.347Z,7.13
2019-04-20T05:37:31.241Z,6.37
2019-04-20T05:39:59.460Z,6.33
2019-04-20T05:42:32.765Z,6.30
2019-04-20T05:44:57.310Z,6.57
2019-04-20T05:47:29.092Z,7.57
2019-04-20T05:49:58.702Z,6.43
2019-04-20T05:55:13.055Z,6.53
2019-04-20T05:57:35.018Z,8.57
2019-04-20T06:00:13.599Z,7.00
2019-04-20T06:02:44.078Z,6.07
2019-04-20T06:05:16.026Z,6.87
2019-04-20T06:07:48.823Z,7.40
2019-04-20T06:10:27.465Z,7.17
2019-04-20T06:12:55.437Z,6.80
2019-04-20T06:15:42.728Z,7.80
2019-04-20T06:18:16.744Z,7.07
2019-04-20T06:21:02.306Z,7.23
2019-04-20T06:23:47.904Z,7.43
2019-04-20T06:26:36.954Z,8.23
2019-04-20T06:28:41.555Z,8.03
2019-04-20T06:31:19.143Z,7.93
2019-04-20T06:37:05.780Z,7.77
2019-04-20T06:44:57.556Z,8.10
2019-04-20T06:47:21.190Z,7.60
2019-04-20T06:49:38.081Z,7.80
2019-04-20T06:52:27.512Z,11.77
2019-04-20T06:55:05.256Z,8.03
2019-04-20T07:00:15.537Z,9.10
2019-04-20T07:02:48.600Z,8.50
2019-04-20T07:05:22.537Z,9.40
2019-04-20T07:08:00.723Z,8.70
2019-04-20T07:10:35.898Z,9.03
2019-04-20T07:12:55.623Z,9.87
2019-04-20T07:15:44.232Z,8.80
2019-04-20T07:18:24.566Z,8.50
2019-04-20T07:21:35.662Z,9.73
2019-04-20T07:23:53.974Z,9.50
2019-04-20T07:26:31.901Z,8.80
2019-04-20T07:29:00.454Z,8.17
2019-04-20T07:31:30.840Z,9.07
2019-04-20T07:34:03.648Z,8.53
2019-04-20T07:36:40.439Z,9.27
2019-04-20T07:39:08.862Z,8.57
2019-04-20T07:41:50.640Z,8.67
2019-04-20T07:44:13.124Z,9.10
2019-04-20T07:46:54.570Z,10.00
2019-04-20T07:49:15.995Z,9.50
2019-04-20T07:51:31.675Z,8.50
2019-04-20T07:54:24.614Z,13.03
2019-04-20T07:56:52.130Z,10.87
2019-04-20T07:59:18.957Z,8.20
2019-04-20T08:02:25.225Z,12.37
2019-04-20T08:05:08.202Z,8.57
2019-04-20T08:07:39.144Z,10.50
2019-04-20T08:10:09.137Z,8.53
2019-04-20T08:13:07.987Z,10.30
2019-04-20T08:15:44.517Z,9.60
2019-04-20T08:17:59.898Z,10.70
2019-04-20T08:20:32.966Z,15.97
2019-04-20T08:23:05.089Z,10.57
2019-04-20T08:25:35.087Z,10.73
2019-04-20T08:28:13.564Z,13.93
2019-04-20T08:31:11.693Z,10.40
2019-04-20T08:33:55.022Z,14.73
2019-04-20T08:36:26.993Z,9.23
2019-04-20T08:39:28.164Z,11.03
2019-04-20T08:41:24.950Z,10.13
2019-04-20T08:44:11.378Z,10.50
2019-04-20T08:46:47.733Z,10.57
2019-04-20T08:49:12.909Z,10.80
2019-04-20T08:51:49.734Z,11.40
2019-04-20T08:54:12.488Z,10.30
2019-04-20T08:56:39.101Z,10.40
2019-04-20T08:59:09.572Z,10.23
2019-04-20T09:01:40.924Z,13.27
2019-04-20T09:04:18.627Z,13.23
2019-04-20T09:07:02.589Z,11.20
2019-04-20T09:12:11.869Z,11.20
2019-04-20T09:14:28.673Z,11.07
2019-04-20T09:17:07.994Z,11.40
2019-04-20T09:19:47.041Z,16.33
2019-04-20T09:22:34.033Z,12.97
2019-04-20T09:25:35.867Z,17.87
2019-04-20T09:27:39.736Z,12.37
2019-04-20T09:30:19.907Z,11.40
2019-04-20T09:33:09.582Z,12.47
2019-04-20T09:35:38.781Z,15.10
2019-04-20T09:38:11.319Z,12.97
2019-04-20T09:40:51.372Z,11.47
2019-04-20T09:43:11.256Z,13.20
2019-04-20T09:45:48.972Z,12.33
2019-04-20T09:48:27.352Z,13.00
2019-04-20T09:51:19.277Z,11.97
2019-04-20T09:53:40.234Z,12.23
2019-04-20T09:56:16.886Z,11.37
2019-04-20T09:58:50.726Z,13.80
2019-04-20T10:01:15.700Z,16.13
2019-04-20T10:03:36.634Z,13.17
2019-04-20T10:06:11.676Z,12.93
2019-04-20T10:08:50.680Z,15.57
2019-04-20T10:11:14.243Z,13.00
2019-04-20T10:13:45.933Z,13.87
2019-04-20T10:16:21.888Z,11.73
2019-04-20T10:18:53.649Z,12.17
2019-04-20T10:21:24.051Z,11.20
2019-04-20T10:23:58.793Z,15.30
2019-04-20T10:26:30.265Z,12.23
2019-04-20T10:29:01.571Z,15.23
2019-04-20T10:31:42.100Z,14.40
2019-04-20T10:34:07.410Z,13.43
2019-04-20T10:36:59.748Z,14.37
2019-04-20T10:39:30.761Z,13.33
2019-04-20T10:42:04.340Z,17.83
2019-04-20T10:44:34.824Z,12.03
2019-04-20T10:47:05.087Z,13.00
2019-04-20T10:49:37.331Z,13.87
2019-04-20T10:52:09.757Z,14.00
2019-04-20T10:54:40.632Z,12.97
2019-04-20T10:57:13.237Z,14.57
2019-04-20T10:59:43.762Z,12.33
2019-04-20T11:02:16.021Z,11.57
2019-04-20T11:04:50.591Z,11.50
2019-04-20T11:07:22.906Z,12.30
2019-04-20T11:10:10.622Z,14.57
2019-04-20T11:12:30.369Z,13.77
2019-04-20T11:15:01.166Z,13.10
2019-04-20T11:17:31.865Z,14.50
2019-04-20T11:20:07.425Z,13.27
2019-04-20T11:22:40.216Z,24.13
2019-04-20T11:25:14.469Z,16.30
2019-04-20T11:27:48.097Z,13.80
2019-04-20T11:30:20.398Z,13.67
2019-04-20T11:32:51.921Z,13.73
2019-04-20T11:35:30.834Z,13.57
2019-04-20T11:37:57.477Z,18.77
2019-04-20T11:40:28.842Z,13.60
2019-04-20T11:42:59.655Z,12.50
2019-04-20T11:45:30.945Z,13.77
2019-04-20T11:48:03.300Z,11.60
2019-04-20T11:50:37.772Z,11.33
2019-04-20T11:53:11.447Z,11.43
2019-04-20T11:55:42.396Z,12.33
2019-04-20T11:58:12.696Z,12.57
2019-04-20T12:00:56.036Z,13.13
2019-04-20T12:03:33.301Z,12.30
2019-04-20T12:06:03.521Z,13.63
2019-04-20T12:08:36.047Z,12.57
2019-04-20T12:11:22.750Z,11.40
2019-04-20T12:13:40.731Z,14.00
2019-04-20T12:16:15.147Z,12.30
2019-04-20T12:18:48.295Z,11.70
2019-04-20T12:21:21.103Z,11.80
2019-04-20T12:23:54.072Z,13.73
2019-04-20T12:26:27.350Z,12.00
2019-04-20T12:28:58.747Z,12.13
2019-04-20T12:31:31.500Z,12.17
2019-04-20T12:34:06.389Z,14.67
2019-04-20T12:36:37.770Z,11.60
2019-04-20T12:39:13.245Z,12.30
2019-04-20T12:41:50.426Z,10.10
2019-04-20T12:44:19.694Z,11.90
2019-04-20T12:46:49.980Z,9.77
2019-04-20T12:49:23.317Z,13.00
2019-04-20T12:51:58.035Z,11.00
2019-04-20T12:54:26.908Z,12.90
2019-04-20T12:56:58.467Z,10.67
2019-04-20T12:59:31.570Z,12.00
2019-04-20T13:02:02.323Z,11.37
2019-04-20T13:04:35.579Z,12.40
2019-04-20T13:07:06.169Z,9.90
2019-04-20T13:09:41.874Z,11.60
2019-04-20T13:12:32.210Z,12.30
2019-04-20T13:15:52.116Z,11.77
2019-04-20T13:18:30.785Z,10.73
2019-04-20T13:21:01.703Z,9.00
2019-04-20T13:23:37.306Z,10.90
2019-04-20T13:26:10.991Z,10.40
2019-04-20T13:28:43.274Z,8.93
2019-04-20T13:31:13.632Z,10.67
2019-04-20T13:33:45.308Z,11.60
2019-04-20T13:36:19.975Z,10.10
2019-04-20T13:38:51.924Z,8.73
2019-04-20T13:41:24.622Z,11.50
2019-04-20T13:43:58.421Z,11.07
2019-04-20T13:46:31.505Z,14.43
2019-04-20T13:49:04.954Z,12.53
2019-04-20T13:51:37.051Z,9.60
2019-04-20T13:54:16.190Z,11.03
2019-04-20T13:56:43.815Z,10.10
2019-04-20T13:59:24.248Z,10.40
2019-04-20T14:02:04.612Z,10.30
2019-04-20T14:04:48.725Z,9.60
2019-04-20T14:07:24.624Z,10.47
2019-04-20T14:09:57.417Z,10.30
2019-04-20T14:12:35.299Z,12.00
2019-04-20T14:15:01.269Z,10.20
2019-04-20T14:17:35.084Z,9.80
2019-04-20T14:20:15.791Z,9.50
2019-04-20T14:22:45.290Z,15.30
2019-04-20T14:25:16.396Z,10.33
2019-04-20T14:27:46.925Z,12.10
2019-04-20T14:30:19.274Z,9.10
2019-04-20T14:32:50.516Z,11.23
2019-04-20T14:35:20.829Z,10.50
2019-04-20T14:37:52.162Z,10.73
2019-04-20T14:40:24.051Z,9.83
2019-04-20T14:42:58.286Z,8.47
2019-04-20T14:45:28.939Z,10.50
2019-04-20T14:48:02.004Z,8.93
2019-04-20T14:50:33.895Z,9.60
2019-04-20T14:53:05.300Z,9.97
2019-04-20T14:55:40.041Z,9.93
2019-04-20T14:58:31.580Z,10.20
2019-04-20T15:01:08.918Z,9.53
2019-04-20T15:03:42.126Z,10.70
2019-04-20T15:06:13.660Z,10.67
2019-04-20T15:08:44.960Z,15.33
2019-04-20T15:11:15.182Z,10.53
2019-04-20T15:13:46.851Z,11.37
2019-04-20T15:16:18.768Z,8.90
2019-04-20T15:19:11.843Z,9.63
2019-04-20T15:21:45.379Z,9.33
2019-04-20T15:24:15.610Z,10.27
2019-04-20T15:26:46.609Z,9.40
2019-04-20T15:29:18.164Z,10.50
2019-04-20T15:31:50.063Z,8.67
2019-04-20T15:34:22.579Z,9.13
2019-04-20T15:36:54.135Z,9.10
2019-04-20T15:39:25.264Z,8.40
2019-04-20T15:41:55.473Z,10.23
2019-04-20T15:44:31.354Z,10.43
2019-04-20T15:47:01.549Z,8.80
2019-04-20T15:49:32.052Z,8.77
2019-04-20T15:52:02.089Z,10.60
2019-04-20T15:54:33.693Z,11.13
2019-04-20T15:57:12.832Z,10.07
2019-04-20T15:59:40.274Z,11.03
2019-04-20T16:02:18.953Z,9.80
2019-04-20T16:04:54.371Z,9.90
2019-04-20T16:07:25.503Z,9.83
2019-04-20T16:09:56.887Z,10.63
2019-04-20T16:12:29.043Z,13.67
2019-04-20T16:14:59.879Z,9.27
2019-04-20T16:17:36.841Z,10.70
2019-04-20T16:20:09.041Z,10.40
2019-04-20T16:22:36.590Z,13.80
2019-04-20T16:25:23.452Z,10.50
2019-04-20T16:27:55.939Z,10.80
2019-04-20T16:30:29.777Z,10.00
2019-04-20T16:33:04.565Z,9.70
2019-04-20T16:35:36.381Z,12.30
2019-04-20T16:38:06.771Z,10.33
2019-04-20T16:40:37.937Z,9.83
2019-04-20T16:43:18.041Z,9.80
2019-04-20T16:45:41.806Z,8.90
2019-04-20T16:48:12.479Z,10.37
2019-04-20T16:50:43.215Z,11.10
2019-04-20T16:53:15.013Z,10.00
2019-04-20T16:55:46.655Z,13.63
2019-04-20T16:58:17.867Z,10.60
2019-04-20T17:00:47.849Z,8.97
2019-04-20T17:03:31.745Z,10.47
2019-04-20T17:05:56.018Z,9.30
2019-04-20T17:08:26.990Z,10.90
2019-04-20T17:11:00.004Z,12.40
2019-04-20T17:13:43.132Z,16.40
2019-04-20T17:16:07.896Z,11.70
2019-04-20T17:18:39.369Z,13.27
2019-04-20T17:21:16.554Z,9.67
2019-04-20T17:23:45.028Z,9.77
2019-04-20T17:26:25.146Z,8.80
2019-04-20T17:29:12.204Z,9.43
2019-04-20T17:32:05.551Z,14.80
2019-04-20T17:34:54.243Z,9.53
2019-04-20T17:37:12.782Z,10.87
2019-04-20T17:40:06.388Z,9.70
2019-04-20T17:42:32.153Z,10.03
2019-04-20T17:45:02.186Z,10.83
2019-04-20T17:47:44.918Z,12.70
2019-04-20T17:50:13.158Z,15.63
2019-04-20T17:52:49.737Z,7.90
2019-04-20T17:55:24.574Z,10.07
2019-04-20T17:57:43.639Z,9.90
2019-04-20T18:00:24.223Z,9.50
2019-04-20T18:03:17.588Z,8.70
2019-04-20T18:05:58.458Z,10.47
2019-04-20T18:08:29.954Z,15.93
2019-04-20T18:10:53.133Z,11.53
2019-04-20T18:13:22.450Z,11.57
2019-04-20T18:16:17.053Z,11.33
2019-04-20T18:19:04.070Z,11.67
2019-04-20T18:21:41.815Z,14.10
2019-04-20T18:24:24.212Z,12.83
2019-04-20T18:27:07.209Z,12.30
2019-04-20T18:29:42.834Z,11.77
2019-04-20T18:32:11.898Z,12.27
2019-04-20T18:34:58.412Z,11.00
2019-04-20T18:37:26.864Z,13.83
2019-04-20T18:40:03.931Z,11.13
2019-04-20T18:42:37.197Z,10.83
2019-04-20T18:45:30.969Z,11.37
2019-04-20T18:48:04.359Z,13.40
2019-04-20T18:50:27.326Z,9.33
2019-04-20T18:52:53.981Z,9.27
2019-04-20T18:55:33.265Z,9.83
2019-04-20T18:58:01.504Z,10.50
2019-04-20T19:00:36.397Z,10.93
2019-04-20T19:03:13.198Z,10.13
2019-04-20T19:05:37.954Z,10.73
2019-04-20T19:08:13.640Z,10.87
2019-04-20T19:10:54.789Z,13.73
2019-04-20T19:13:30.897Z,12.03
2019-04-20T19:16:16.571Z,11.27
2019-04-20T19:19:04.261Z,12.27
2019-04-20T19:21:24.986Z,11.37
2019-04-20T19:24:03.803Z,11.30
2019-04-20T19:26:32.534Z,11.50
2019-04-20T19:29:14.253Z,12.07
2019-04-20T19:31:52.893Z,12.37
2019-04-20T19:34:26.029Z,11.70
2019-04-20T19:36:53.384Z,11.70
2019-04-20T19:39:29.878Z,12.40
2019-04-20T19:41:55.620Z,11.90
2019-04-20T19:44:37.238Z,11.47
2019-04-20T19:47:17.043Z,12.10
2019-04-20T19:49:38.861Z,11.07
2019-04-20T19:54:50.437Z,11.93
2019-04-20T19:57:28.506Z,11.83
2019-04-20T19:59:45.744Z,11.17
2019-04-20T20:02:13.835Z,12.20
2019-04-20T20:04:49.322Z,11.93
2019-04-20T20:07:26.383Z,12.13
2019-04-20T20:09:54.789Z,12.17
2019-04-20T20:12:21.290Z,12.33
2019-04-20T20:14:53.141Z,11.50
2019-04-20T20:17:48.827Z,11.70
2019-04-20T20:20:31.750Z,12.17
2019-04-20T20:22:49.514Z,11.50
2019-04-20T20:25:15.293Z,11.47
2019-04-20T20:27:52.723Z,11.87
2019-04-20T20:30:28.030Z,11.17
2019-04-20T20:33:13.949Z,12.27
2019-04-20T20:35:35.865Z,12.33
2019-04-20T20:38:11.774Z,12.70
2019-04-20T20:40:49.181Z,11.73
2019-04-20T20:43:18.085Z,11.90
2019-04-20T20:45:56.791Z,11.30
2019-04-20T20:48:34.054Z,16.40
2019-04-20T20:51:04.724Z,15.77
2019-04-20T20:53:36.416Z,12.87
2019-04-20T20:56:05.337Z,15.70
2019-04-20T20:58:45.163Z,12.30
2019-04-20T21:01:10.735Z,11.97
2019-04-20T21:03:41.965Z,11.80
2019-04-20T21:06:11.861Z,10.97
2019-04-20T21:08:49.677Z,11.00
2019-04-20T21:11:20.372Z,12.93
2019-04-20T21:13:49.226Z,12.17
2019-04-20T21:16:25.143Z,10.70
2019-04-20T21:19:14.718Z,12.17
2019-04-20T21:21:42.746Z,11.33
2019-04-20T21:24:19.229Z,11.90
2019-04-20T21:26:48.070Z,12.00
2019-04-20T21:29:31.730Z,11.13
2019-04-20T21:32:01.818Z,10.93
2019-04-20T21:34:25.679Z,11.80
2019-04-20T21:37:07.311Z,11.60
2019-04-20T21:39:41.004Z,10.63
2019-04-20T21:42:13.773Z,10.20
2019-04-20T21:44:42.941Z,10.10
2019-04-20T21:47:16.588Z,10.10
2019-04-20T21:49:57.510Z,10.70
2019-04-20T21:52:27.020Z,10.93
2019-04-20T21:54:54.042Z,12.43
2019-04-20T21:57:42.162Z,11.60
2019-04-20T22:00:23.789Z,10.40
2019-04-20T22:02:54.154Z,11.00
2019-04-20T22:05:23.343Z,10.83
2019-04-20T22:08:06.499Z,11.07
2019-04-20T22:10:40.791Z,11.23
2019-04-20T22:13:26.774Z,11.87
2019-04-20T22:15:59.747Z,10.57
2019-04-20T22:18:27.233Z,9.77
2019-04-20T22:21:12.303Z,10.80
2019-04-20T22:23:53.137Z,11.47
2019-04-20T22:26:18.714Z,11.50
2019-04-20T22:28:42.058Z,12.50
2019-04-20T22:31:13.903Z,11.47
2019-04-20T22:33:49.224Z,11.40
2019-04-20T22:36:24.796Z,11.87
2019-04-20T22:39:13.857Z,10.60
2019-04-20T22:42:07.124Z,11.53
2019-04-20T22:44:39.201Z,10.53
2019-04-20T22:47:14.088Z,11.90
2019-04-20T22:49:52.918Z,11.33
2019-04-20T22:52:30.509Z,11.73
2019-04-20T22:55:10.085Z,11.47
2019-04-20T22:57:39.575Z,11.37
2019-04-20T23:00:03.406Z,11.83
2019-04-20T23:02:28.288Z,12.73
2019-04-20T23:05:25.277Z,11.67
2019-04-20T23:07:58.986Z,11.60
2019-04-20T23:10:37.731Z,12.17
2019-04-20T23:13:09.570Z,12.13
2019-04-20T23:15:43.334Z,12.23
2019-04-20T23:18:18.159Z,12.67
2019-04-20T23:20:49.972Z,11.63
2019-04-20T23:23:25.448Z,13.00
2019-04-20T23:25:56.779Z,12.23
2019-04-20T23:28:27.003Z,11.87
2019-04-20T23:31:02.541Z,12.93
2019-04-20T23:33:29.923Z,14.37
2019-04-20T23:36:04.689Z,13.77
2019-04-20T23:38:34.822Z,14.13
2019-04-20T23:41:05.914Z,13.87
2019-04-20T23:43:43.010Z,13.73
2019-04-20T23:46:31.620Z,13.47
2019-04-20T23:49:28.182Z,13.73
2019-04-20T23:52:21.397Z,14.03
2019-04-20T23:57:00.005Z,13.77
2019-04-20T23:59:39.589Z,12.50
